sensor_id;sensor_type;location;lat;lon;timestamp;temperature;humidity
49717;DHT22;35609;53.166;7.610;2023-02-15T00:01:33;-1.70;99.90
49717;DHT22;35609;53.166;7.610;2023-02-15T00:03:59;-1.80;99.90
49717;DHT22;35609;53.166;7.610;2023-02-15T00:06:25;-2.10;99.90
49717;DHT22;35609;53.166;7.610;2023-02-15T00:08:51;-2.10;99.90
49717;DHT22;35609;53.166;7.610;2023-02-15T00:11:17;-2.30;99.90
49717;DHT22;35609;53.166;7.610;2023-02-15T00:14:09;-2.00;99.90
49717;DHT22;35609;53.166;7.610;2023-02-15T00:16:35;-2.10;99.90
49717;DHT22;35609;53.166;7.610;2023-02-15T00:19:02;-2.30;99.90
49717;DHT22;35609;53.166;7.610;2023-02-15T00:21:32;-2.40;99.90
49717;DHT22;35609;53.166;7.610;2023-02-15T00:23:59;-2.20;99.90
49717;DHT22;35609;53.166;7.610;2023-02-15T00:26:25;-2.30;99.90
49717;DHT22;35609;53.166;7.610;2023-02-15T00:28:51;-2.50;99.90
49717;DHT22;35609;53.166;7.610;2023-02-15T00:31:17;-2.70;99.90
49717;DHT22;35609;53.166;7.610;2023-02-15T00:33:43;-2.70;99.90
49717;DHT22;35609;53.166;7.610;2023-02-15T00:36:11;-2.70;99.90
49717;DHT22;35609;53.166;7.610;2023-02-15T00:38:37;-2.60;99.90
49717;DHT22;35609;53.166;7.610;2023-02-15T00:41:05;-2.40;99.90
49717;DHT22;35609;53.166;7.610;2023-02-15T00:43:32;-2.50;99.90
49717;DHT22;35609;53.166;7.610;2023-02-15T00:45:58;-2.70;99.90
49717;DHT22;35609;53.166;7.610;2023-02-15T00:48:24;-2.40;99.90
49717;DHT22;35609;53.166;7.610;2023-02-15T00:50:51;-2.80;99.90
49717;DHT22;35609;53.166;7.610;2023-02-15T00:53:18;-2.70;99.90
49717;DHT22;35609;53.166;7.610;2023-02-15T00:55:43;-2.60;99.90
49717;DHT22;35609;53.166;7.610;2023-02-15T00:58:10;-2.40;99.90
49717;DHT22;35609;53.166;7.610;2023-02-15T01:00:37;-2.70;99.90
49717;DHT22;35609;53.166;7.610;2023-02-15T01:03:03;-2.50;99.90
49717;DHT22;35609;53.166;7.610;2023-02-15T01:05:29;-2.50;99.90
49717;DHT22;35609;53.166;7.610;2023-02-15T01:07:56;-2.50;99.90
49717;DHT22;35609;53.166;7.610;2023-02-15T01:10:22;-2.60;99.90
49717;DHT22;35609;53.166;7.610;2023-02-15T01:12:49;-2.80;99.90
49717;DHT22;35609;53.166;7.610;2023-02-15T01:15:15;-2.80;99.90
49717;DHT22;35609;53.166;7.610;2023-02-15T01:17:40;-2.50;99.90
49717;DHT22;35609;53.166;7.610;2023-02-15T01:20:07;-2.60;99.90
49717;DHT22;35609;53.166;7.610;2023-02-15T01:22:32;-2.80;99.90
49717;DHT22;35609;53.166;7.610;2023-02-15T01:24:58;-2.70;99.90
49717;DHT22;35609;53.166;7.610;2023-02-15T01:27:24;-2.90;99.90
49717;DHT22;35609;53.166;7.610;2023-02-15T01:29:49;-2.70;99.90
49717;DHT22;35609;53.166;7.610;2023-02-15T01:32:15;-2.80;99.90
49717;DHT22;35609;53.166;7.610;2023-02-15T01:34:41;-2.80;99.90
49717;DHT22;35609;53.166;7.610;2023-02-15T01:37:06;-2.80;99.90
49717;DHT22;35609;53.166;7.610;2023-02-15T01:39:32;-2.70;99.90
49717;DHT22;35609;53.166;7.610;2023-02-15T01:41:57;-2.80;99.90
49717;DHT22;35609;53.166;7.610;2023-02-15T01:47:14;-2.60;99.90
49717;DHT22;35609;53.166;7.610;2023-02-15T01:49:42;-2.80;99.90
49717;DHT22;35609;53.166;7.610;2023-02-15T01:52:12;-2.70;99.90
49717;DHT22;35609;53.166;7.610;2023-02-15T01:54:40;-2.60;99.90
49717;DHT22;35609;53.166;7.610;2023-02-15T01:57:16;-2.70;99.90
49717;DHT22;35609;53.166;7.610;2023-02-15T01:59:46;-3.00;99.90
49717;DHT22;35609;53.166;7.610;2023-02-15T02:02:13;-3.00;99.90
49717;DHT22;35609;53.166;7.610;2023-02-15T02:04:49;-3.00;99.90
49717;DHT22;35609;53.166;7.610;2023-02-15T02:07:17;-2.80;99.90
49717;DHT22;35609;53.166;7.610;2023-02-15T02:09:44;-3.00;99.90
49717;DHT22;35609;53.166;7.610;2023-02-15T02:12:10;-2.80;99.90
49717;DHT22;35609;53.166;7.610;2023-02-15T02:14:38;-3.10;99.90
49717;DHT22;35609;53.166;7.610;2023-02-15T02:17:54;-3.10;99.90
49717;DHT22;35609;53.166;7.610;2023-02-15T02:31:11;-3.10;99.90
49717;DHT22;35609;53.166;7.610;2023-02-15T02:44:51;-3.30;99.90
49717;DHT22;35609;53.166;7.610;2023-02-15T02:50:06;-3.00;99.90
49717;DHT22;35609;53.166;7.610;2023-02-15T02:52:48;-3.30;99.90
49717;DHT22;35609;53.166;7.610;2023-02-15T02:58:11;-3.10;99.90
49717;DHT22;35609;53.166;7.610;2023-02-15T03:00:51;-3.10;99.90
49717;DHT22;35609;53.166;7.610;2023-02-15T03:05:52;-3.30;99.90
49717;DHT22;35609;53.166;7.610;2023-02-15T03:08:21;-3.10;99.90
49717;DHT22;35609;53.166;7.610;2023-02-15T03:10:52;-3.40;99.90
49717;DHT22;35609;53.166;7.610;2023-02-15T03:13:19;-3.30;99.90
49717;DHT22;35609;53.166;7.610;2023-02-15T03:15:45;-3.30;99.90
49717;DHT22;35609;53.166;7.610;2023-02-15T03:18:44;-3.20;99.90
49717;DHT22;35609;53.166;7.610;2023-02-15T03:21:46;-3.20;99.90
49717;DHT22;35609;53.166;7.610;2023-02-15T03:24:39;-3.40;99.90
49717;DHT22;35609;53.166;7.610;2023-02-15T03:27:42;-3.30;99.90
49717;DHT22;35609;53.166;7.610;2023-02-15T03:30:20;-3.10;99.90
49717;DHT22;35609;53.166;7.610;2023-02-15T03:32:49;-3.30;99.90
49717;DHT22;35609;53.166;7.610;2023-02-15T03:35:18;-3.20;99.90
49717;DHT22;35609;53.166;7.610;2023-02-15T03:37:53;-3.30;99.90
49717;DHT22;35609;53.166;7.610;2023-02-15T03:40:38;-3.10;99.90
49717;DHT22;35609;53.166;7.610;2023-02-15T03:43:33;-3.30;99.90
49717;DHT22;35609;53.166;7.610;2023-02-15T03:46:15;-3.50;99.90
49717;DHT22;35609;53.166;7.610;2023-02-15T03:48:47;-3.40;99.90
49717;DHT22;35609;53.166;7.610;2023-02-15T03:51:20;-3.10;99.90
49717;DHT22;35609;53.166;7.610;2023-02-15T03:54:45;-3.50;99.90
49717;DHT22;35609;53.166;7.610;2023-02-15T03:57:12;-3.40;99.90
49717;DHT22;35609;53.166;7.610;2023-02-15T04:00:17;-3.50;99.90
49717;DHT22;35609;53.166;7.610;2023-02-15T04:05:39;-3.50;99.90
49717;DHT22;35609;53.166;7.610;2023-02-15T04:08:06;-3.20;99.90
49717;DHT22;35609;53.166;7.610;2023-02-15T04:10:34;-3.50;99.90
49717;DHT22;35609;53.166;7.610;2023-02-15T04:13:19;-3.20;99.90
49717;DHT22;35609;53.166;7.610;2023-02-15T04:15:45;-3.50;99.90
49717;DHT22;35609;53.166;7.610;2023-02-15T04:21:15;-3.30;99.90
49717;DHT22;35609;53.166;7.610;2023-02-15T04:23:59;-3.60;99.90
49717;DHT22;35609;53.166;7.610;2023-02-15T04:26:44;-3.60;99.90
49717;DHT22;35609;53.166;7.610;2023-02-15T04:29:09;-3.50;99.90
49717;DHT22;35609;53.166;7.610;2023-02-15T04:31:35;-3.50;99.90
49717;DHT22;35609;53.166;7.610;2023-02-15T04:34:01;-3.60;99.90
49717;DHT22;35609;53.166;7.610;2023-02-15T04:36:27;-3.30;99.90
49717;DHT22;35609;53.166;7.610;2023-02-15T04:38:53;-3.60;99.90
49717;DHT22;35609;53.166;7.610;2023-02-15T04:41:18;-3.40;99.90
49717;DHT22;35609;53.166;7.610;2023-02-15T04:43:44;-3.50;99.90
49717;DHT22;35609;53.166;7.610;2023-02-15T04:46:10;-3.50;99.90
49717;DHT22;35609;53.166;7.610;2023-02-15T04:48:35;-3.30;99.90
49717;DHT22;35609;53.166;7.610;2023-02-15T04:51:11;-3.40;99.90
49717;DHT22;35609;53.166;7.610;2023-02-15T04:53:37;-3.40;99.90
49717;DHT22;35609;53.166;7.610;2023-02-15T04:56:03;-3.70;99.90
49717;DHT22;35609;53.166;7.610;2023-02-15T04:58:28;-3.40;99.90
49717;DHT22;35609;53.166;7.610;2023-02-15T05:00:58;-3.40;99.90
49717;DHT22;35609;53.166;7.610;2023-02-15T05:03:24;-3.50;99.90
49717;DHT22;35609;53.166;7.610;2023-02-15T05:05:50;-3.70;99.90
49717;DHT22;35609;53.166;7.610;2023-02-15T05:08:16;-3.40;99.90
49717;DHT22;35609;53.166;7.610;2023-02-15T05:10:42;-3.40;99.90
49717;DHT22;35609;53.166;7.610;2023-02-15T05:13:08;-3.50;99.90
49717;DHT22;35609;53.166;7.610;2023-02-15T05:15:34;-3.90;99.90
49717;DHT22;35609;53.166;7.610;2023-02-15T05:18:02;-3.70;99.90
49717;DHT22;35609;53.166;7.610;2023-02-15T05:20:28;-3.60;99.90
49717;DHT22;35609;53.166;7.610;2023-02-15T05:22:54;-3.60;99.90
49717;DHT22;35609;53.166;7.610;2023-02-15T05:25:20;-3.90;99.90
49717;DHT22;35609;53.166;7.610;2023-02-15T05:28:05;-3.80;99.90
49717;DHT22;35609;53.166;7.610;2023-02-15T05:30:50;-3.70;99.90
49717;DHT22;35609;53.166;7.610;2023-02-15T05:33:16;-3.70;99.90
49717;DHT22;35609;53.166;7.610;2023-02-15T05:35:42;-4.00;99.90
49717;DHT22;35609;53.166;7.610;2023-02-15T05:38:08;-3.80;99.90
49717;DHT22;35609;53.166;7.610;2023-02-15T05:40:34;-3.70;99.90
49717;DHT22;35609;53.166;7.610;2023-02-15T05:43:00;-3.90;99.90
49717;DHT22;35609;53.166;7.610;2023-02-15T05:45:26;-3.70;99.90
49717;DHT22;35609;53.166;7.610;2023-02-15T05:47:52;-3.80;99.90
49717;DHT22;35609;53.166;7.610;2023-02-15T05:50:17;-3.60;99.90
49717;DHT22;35609;53.166;7.610;2023-02-15T05:52:43;-3.80;99.90
49717;DHT22;35609;53.166;7.610;2023-02-15T05:55:09;-3.60;99.90
49717;DHT22;35609;53.166;7.610;2023-02-15T05:57:35;-3.80;99.90
49717;DHT22;35609;53.166;7.610;2023-02-15T06:00:03;-3.50;99.90
49717;DHT22;35609;53.166;7.610;2023-02-15T06:02:32;-3.80;99.90
49717;DHT22;35609;53.166;7.610;2023-02-15T06:04:58;-3.40;99.90
49717;DHT22;35609;53.166;7.610;2023-02-15T06:07:24;-3.30;99.90
49717;DHT22;35609;53.166;7.610;2023-02-15T06:09:49;-3.10;99.90
49717;DHT22;35609;53.166;7.610;2023-02-15T06:12:15;-3.20;99.90
49717;DHT22;35609;53.166;7.610;2023-02-15T06:14:41;-3.20;99.90
49717;DHT22;35609;53.166;7.610;2023-02-15T06:17:06;-3.40;99.90
49717;DHT22;35609;53.166;7.610;2023-02-15T06:19:32;-3.20;99.90
49717;DHT22;35609;53.166;7.610;2023-02-15T06:21:58;-3.40;99.90
49717;DHT22;35609;53.166;7.610;2023-02-15T06:24:23;-3.20;99.90
49717;DHT22;35609;53.166;7.610;2023-02-15T06:26:49;-3.50;99.90
49717;DHT22;35609;53.166;7.610;2023-02-15T06:29:15;-3.40;99.90
49717;DHT22;35609;53.166;7.610;2023-02-15T06:31:40;-3.00;99.90
49717;DHT22;35609;53.166;7.610;2023-02-15T06:34:06;-3.10;99.90
49717;DHT22;35609;53.166;7.610;2023-02-15T06:36:35;-3.30;99.90
49717;DHT22;35609;53.166;7.610;2023-02-15T06:39:00;-3.40;99.90
49717;DHT22;35609;53.166;7.610;2023-02-15T06:41:28;-3.30;99.90
49717;DHT22;35609;53.166;7.610;2023-02-15T06:43:53;-3.20;99.90
49717;DHT22;35609;53.166;7.610;2023-02-15T06:46:19;-3.30;99.90
49717;DHT22;35609;53.166;7.610;2023-02-15T06:48:45;-3.10;99.90
49717;DHT22;35609;53.166;7.610;2023-02-15T06:51:10;-3.20;99.90
49717;DHT22;35609;53.166;7.610;2023-02-15T06:53:36;-3.40;99.90
49717;DHT22;35609;53.166;7.610;2023-02-15T06:56:03;-3.30;99.90
49717;DHT22;35609;53.166;7.610;2023-02-15T06:58:35;-3.00;99.90
49717;DHT22;35609;53.166;7.610;2023-02-15T07:01:00;-3.20;99.90
49717;DHT22;35609;53.166;7.610;2023-02-15T07:03:26;-2.90;99.90
49717;DHT22;35609;53.166;7.610;2023-02-15T07:05:56;-3.00;99.90
49717;DHT22;35609;53.166;7.610;2023-02-15T07:08:22;-2.90;99.90
49717;DHT22;35609;53.166;7.610;2023-02-15T07:10:49;-2.80;99.90
49717;DHT22;35609;53.166;7.610;2023-02-15T07:13:15;-2.90;99.90
49717;DHT22;35609;53.166;7.610;2023-02-15T07:15:40;-2.90;99.90
49717;DHT22;35609;53.166;7.610;2023-02-15T07:18:06;-2.80;99.90
49717;DHT22;35609;53.166;7.610;2023-02-15T07:20:32;-2.60;99.90
49717;DHT22;35609;53.166;7.610;2023-02-15T07:23:01;-2.90;99.90
49717;DHT22;35609;53.166;7.610;2023-02-15T07:25:27;-2.80;99.90
49717;DHT22;35609;53.166;7.610;2023-02-15T07:28:00;-2.70;99.90
49717;DHT22;35609;53.166;7.610;2023-02-15T07:30:27;-2.40;99.90
49717;DHT22;35609;53.166;7.610;2023-02-15T07:32:57;-2.30;99.90
49717;DHT22;35609;53.166;7.610;2023-02-15T07:35:52;-2.50;99.90
49717;DHT22;35609;53.166;7.610;2023-02-15T07:38:19;-2.30;99.90
49717;DHT22;35609;53.166;7.610;2023-02-15T07:40:45;-2.00;99.90
49717;DHT22;35609;53.166;7.610;2023-02-15T07:43:11;-2.00;99.90
49717;DHT22;35609;53.166;7.610;2023-02-15T07:45:37;-1.90;99.90
49717;DHT22;35609;53.166;7.610;2023-02-15T07:48:03;-1.90;99.90
49717;DHT22;35609;53.166;7.610;2023-02-15T07:50:30;-1.50;99.90
49717;DHT22;35609;53.166;7.610;2023-02-15T07:52:56;-1.40;99.90
49717;DHT22;35609;53.166;7.610;2023-02-15T07:55:21;-1.40;99.90
49717;DHT22;35609;53.166;7.610;2023-02-15T07:57:49;-1.40;99.90
49717;DHT22;35609;53.166;7.610;2023-02-15T08:00:17;-1.20;99.90
49717;DHT22;35609;53.166;7.610;2023-02-15T08:02:48;-1.00;99.90
49717;DHT22;35609;53.166;7.610;2023-02-15T08:05:14;-0.90;99.90
49717;DHT22;35609;53.166;7.610;2023-02-15T08:07:42;-0.60;99.90
49717;DHT22;35609;53.166;7.610;2023-02-15T08:10:08;-0.60;99.90
49717;DHT22;35609;53.166;7.610;2023-02-15T08:12:33;-0.40;99.90
49717;DHT22;35609;53.166;7.610;2023-02-15T08:14:59;-0.20;99.90
49717;DHT22;35609;53.166;7.610;2023-02-15T08:17:25;0.00;99.90
49717;DHT22;35609;53.166;7.610;2023-02-15T08:19:50;0.20;99.90
49717;DHT22;35609;53.166;7.610;2023-02-15T08:22:16;0.30;99.90
49717;DHT22;35609;53.166;7.610;2023-02-15T08:24:42;0.20;99.90
49717;DHT22;35609;53.166;7.610;2023-02-15T08:27:09;0.30;99.90
49717;DHT22;35609;53.166;7.610;2023-02-15T08:29:36;0.50;99.90
49717;DHT22;35609;53.166;7.610;2023-02-15T08:32:08;0.90;99.90
49717;DHT22;35609;53.166;7.610;2023-02-15T08:34:37;0.80;99.90
49717;DHT22;35609;53.166;7.610;2023-02-15T08:37:03;1.20;99.90
49717;DHT22;35609;53.166;7.610;2023-02-15T08:39:29;1.20;99.90
49717;DHT22;35609;53.166;7.610;2023-02-15T08:41:54;1.50;99.90
49717;DHT22;35609;53.166;7.610;2023-02-15T08:44:20;1.50;99.90
49717;DHT22;35609;53.166;7.610;2023-02-15T08:46:47;1.90;99.90
49717;DHT22;35609;53.166;7.610;2023-02-15T08:49:19;2.10;99.90
49717;DHT22;35609;53.166;7.610;2023-02-15T08:51:46;2.10;99.90
49717;DHT22;35609;53.166;7.610;2023-02-15T08:54:14;2.30;99.90
49717;DHT22;35609;53.166;7.610;2023-02-15T08:56:42;2.50;99.90
49717;DHT22;35609;53.166;7.610;2023-02-15T08:59:14;2.60;99.90
49717;DHT22;35609;53.166;7.610;2023-02-15T09:01:40;2.80;99.90
49717;DHT22;35609;53.166;7.610;2023-02-15T09:04:07;2.60;99.90
49717;DHT22;35609;53.166;7.610;2023-02-15T09:06:40;2.90;99.90
49717;DHT22;35609;53.166;7.610;2023-02-15T09:09:07;3.00;99.90
49717;DHT22;35609;53.166;7.610;2023-02-15T09:11:38;3.30;99.90
49717;DHT22;35609;53.166;7.610;2023-02-15T09:14:07;3.40;99.90
49717;DHT22;35609;53.166;7.610;2023-02-15T09:16:36;3.50;99.90
49717;DHT22;35609;53.166;7.610;2023-02-15T09:19:02;4.10;99.90
49717;DHT22;35609;53.166;7.610;2023-02-15T09:21:31;4.00;99.90
49717;DHT22;35609;53.166;7.610;2023-02-15T09:24:00;4.20;99.90
49717;DHT22;35609;53.166;7.610;2023-02-15T09:26:28;4.30;99.90
49717;DHT22;35609;53.166;7.610;2023-02-15T09:28:56;4.40;99.90
49717;DHT22;35609;53.166;7.610;2023-02-15T09:31:25;4.40;99.90
49717;DHT22;35609;53.166;7.610;2023-02-15T09:33:51;4.40;99.90
49717;DHT22;35609;53.166;7.610;2023-02-15T09:36:19;4.70;99.90
49717;DHT22;35609;53.166;7.610;2023-02-15T09:38:50;4.70;99.90
49717;DHT22;35609;53.166;7.610;2023-02-15T09:50:28;5.40;99.90
49717;DHT22;35609;53.166;7.610;2023-02-15T10:04:34;6.50;99.90
49717;DHT22;35609;53.166;7.610;2023-02-15T10:21:00;7.20;99.90
49717;DHT22;35609;53.166;7.610;2023-02-15T10:23:58;7.20;99.90
49717;DHT22;35609;53.166;7.610;2023-02-15T10:32:25;7.80;99.90
49717;DHT22;35609;53.166;7.610;2023-02-15T10:34:52;7.90;99.90
49717;DHT22;35609;53.166;7.610;2023-02-15T10:45:40;8.80;99.90
49717;DHT22;35609;53.166;7.610;2023-02-15T10:48:22;9.00;99.90
49717;DHT22;35609;53.166;7.610;2023-02-15T10:50:55;9.20;99.90
49717;DHT22;35609;53.166;7.610;2023-02-15T10:53:35;9.30;99.90
49717;DHT22;35609;53.166;7.610;2023-02-15T11:01:22;9.30;99.90
49717;DHT22;35609;53.166;7.610;2023-02-15T11:06:53;9.70;99.90
49717;DHT22;35609;53.166;7.610;2023-02-15T11:09:22;9.70;99.90
49717;DHT22;35609;53.166;7.610;2023-02-15T11:11:51;9.90;99.90
49717;DHT22;35609;53.166;7.610;2023-02-15T11:14:51;9.90;99.90
49717;DHT22;35609;53.166;7.610;2023-02-15T11:17:28;10.00;99.90
49717;DHT22;35609;53.166;7.610;2023-02-15T11:20:14;10.20;99.90
49717;DHT22;35609;53.166;7.610;2023-02-15T11:22:41;10.40;99.90
49717;DHT22;35609;53.166;7.610;2023-02-15T11:25:28;10.20;99.90
49717;DHT22;35609;53.166;7.610;2023-02-15T11:27:55;10.40;99.90
49717;DHT22;35609;53.166;7.610;2023-02-15T11:30:39;10.40;99.90
49717;DHT22;35609;53.166;7.610;2023-02-15T11:33:16;10.60;99.90
49717;DHT22;35609;53.166;7.610;2023-02-15T11:38:28;10.80;99.90
49717;DHT22;35609;53.166;7.610;2023-02-15T11:41:07;10.70;99.90
49717;DHT22;35609;53.166;7.610;2023-02-15T11:43:38;10.50;99.90
49717;DHT22;35609;53.166;7.610;2023-02-15T11:46:05;10.40;99.90
49717;DHT22;35609;53.166;7.610;2023-02-15T11:48:33;10.60;99.90
49717;DHT22;35609;53.166;7.610;2023-02-15T11:51:00;10.70;99.90
49717;DHT22;35609;53.166;7.610;2023-02-15T11:53:28;10.90;99.90
49717;DHT22;35609;53.166;7.610;2023-02-15T11:55:56;10.90;99.90
49717;DHT22;35609;53.166;7.610;2023-02-15T12:01:36;11.40;99.90
49717;DHT22;35609;53.166;7.610;2023-02-15T12:04:24;11.50;99.90
49717;DHT22;35609;53.166;7.610;2023-02-15T12:09:46;11.50;99.90
49717;DHT22;35609;53.166;7.610;2023-02-15T12:14:58;11.40;99.90
49717;DHT22;35609;53.166;7.610;2023-02-15T12:17:27;11.60;99.90
49717;DHT22;35609;53.166;7.610;2023-02-15T12:19:56;11.80;99.90
49717;DHT22;35609;53.166;7.610;2023-02-15T12:22:28;11.90;99.90
49717;DHT22;35609;53.166;7.610;2023-02-15T12:24:59;12.00;99.90
49717;DHT22;35609;53.166;7.610;2023-02-15T12:27:28;12.10;99.90
49717;DHT22;35609;53.166;7.610;2023-02-15T12:30:07;11.90;99.90
49717;DHT22;35609;53.166;7.610;2023-02-15T12:32:57;12.10;99.90
49717;DHT22;35609;53.166;7.610;2023-02-15T12:35:33;12.30;99.90
49717;DHT22;35609;53.166;7.610;2023-02-15T12:38:19;12.10;99.90
49717;DHT22;35609;53.166;7.610;2023-02-15T12:41:04;12.10;99.90
49717;DHT22;35609;53.166;7.610;2023-02-15T12:43:37;12.00;99.90
49717;DHT22;35609;53.166;7.610;2023-02-15T12:46:23;11.90;99.90
49717;DHT22;35609;53.166;7.610;2023-02-15T12:49:19;12.00;99.90
49717;DHT22;35609;53.166;7.610;2023-02-15T12:51:50;12.20;99.90
49717;DHT22;35609;53.166;7.610;2023-02-15T12:54:22;12.60;99.90
49717;DHT22;35609;53.166;7.610;2023-02-15T12:56:49;12.60;99.90
49717;DHT22;35609;53.166;7.610;2023-02-15T12:59:15;12.80;99.90
49717;DHT22;35609;53.166;7.610;2023-02-15T13:01:46;12.70;99.90
49717;DHT22;35609;53.166;7.610;2023-02-15T13:06:49;12.80;99.90
49717;DHT22;35609;53.166;7.610;2023-02-15T13:09:20;12.80;99.90
49717;DHT22;35609;53.166;7.610;2023-02-15T13:11:46;12.70;99.90
49717;DHT22;35609;53.166;7.610;2023-02-15T13:14:31;12.70;99.90
49717;DHT22;35609;53.166;7.610;2023-02-15T13:17:00;12.80;99.90
49717;DHT22;35609;53.166;7.610;2023-02-15T13:19:32;13.00;99.90
49717;DHT22;35609;53.166;7.610;2023-02-15T13:22:02;13.20;99.90
49717;DHT22;35609;53.166;7.610;2023-02-15T13:24:39;13.30;99.90
49717;DHT22;35609;53.166;7.610;2023-02-15T13:27:12;13.40;99.90
49717;DHT22;35609;53.166;7.610;2023-02-15T13:29:40;13.30;99.90
49717;DHT22;35609;53.166;7.610;2023-02-15T13:32:28;13.40;99.90
49717;DHT22;35609;53.166;7.610;2023-02-15T13:35:00;13.30;99.90
49717;DHT22;35609;53.166;7.610;2023-02-15T13:37:44;13.20;99.90
49717;DHT22;35609;53.166;7.610;2023-02-15T13:49:06;12.70;99.90
49717;DHT22;35609;53.166;7.610;2023-02-15T13:51:41;12.70;99.90
49717;DHT22;35609;53.166;7.610;2023-02-15T14:02:38;12.10;99.90
49717;DHT22;35609;53.166;7.610;2023-02-15T14:10:50;12.00;99.90
49717;DHT22;35609;53.166;7.610;2023-02-15T14:16:01;12.00;99.90
49717;DHT22;35609;53.166;7.610;2023-02-15T14:26:25;11.70;99.90
49717;DHT22;35609;53.166;7.610;2023-02-15T14:31:29;11.70;99.90
49717;DHT22;35609;53.166;7.610;2023-02-15T14:33:57;11.70;99.90
49717;DHT22;35609;53.166;7.610;2023-02-15T14:36:25;11.60;99.90
49717;DHT22;35609;53.166;7.610;2023-02-15T14:39:26;11.60;99.90
49717;DHT22;35609;53.166;7.610;2023-02-15T14:42:39;11.60;99.90
49717;DHT22;35609;53.166;7.610;2023-02-15T14:45:19;11.50;99.90
49717;DHT22;35609;53.166;7.610;2023-02-15T14:48:12;11.40;99.90
49717;DHT22;35609;53.166;7.610;2023-02-15T14:50:44;11.40;99.90
49717;DHT22;35609;53.166;7.610;2023-02-15T14:53:36;11.40;99.90
49717;DHT22;35609;53.166;7.610;2023-02-15T14:58:55;11.30;99.90
49717;DHT22;35609;53.166;7.610;2023-02-15T15:01:40;11.20;99.90
49717;DHT22;35609;53.166;7.610;2023-02-15T15:04:14;11.10;99.90
49717;DHT22;35609;53.166;7.610;2023-02-15T15:07:02;11.10;99.90
49717;DHT22;35609;53.166;7.610;2023-02-15T15:09:30;11.00;99.90
49717;DHT22;35609;53.166;7.610;2023-02-15T15:14:58;10.80;99.90
49717;DHT22;35609;53.166;7.610;2023-02-15T15:22:42;10.50;99.90
49717;DHT22;35609;53.166;7.610;2023-02-15T15:25:39;10.50;99.90
49717;DHT22;35609;53.166;7.610;2023-02-15T15:27:59;10.40;99.90
49717;DHT22;35609;53.166;7.610;2023-02-15T15:35:35;10.30;99.90
49717;DHT22;35609;53.166;7.610;2023-02-15T15:49:17;9.90;99.90
49717;DHT22;35609;53.166;7.610;2023-02-15T15:51:45;9.80;99.90
49717;DHT22;35609;53.166;7.610;2023-02-15T15:54:23;9.70;99.90
49717;DHT22;35609;53.166;7.610;2023-02-15T15:56:55;9.60;99.90
49717;DHT22;35609;53.166;7.610;2023-02-15T15:59:30;9.50;99.90
49717;DHT22;35609;53.166;7.610;2023-02-15T16:02:05;9.40;99.90
49717;DHT22;35609;53.166;7.610;2023-02-15T16:04:33;9.30;99.90
49717;DHT22;35609;53.166;7.610;2023-02-15T16:10:01;9.00;99.90
49717;DHT22;35609;53.166;7.610;2023-02-15T16:12:30;8.90;99.90
49717;DHT22;35609;53.166;7.610;2023-02-15T16:14:56;8.70;99.90
49717;DHT22;35609;53.166;7.610;2023-02-15T16:17:25;8.60;99.90
49717;DHT22;35609;53.166;7.610;2023-02-15T16:19:58;8.50;99.90
49717;DHT22;35609;53.166;7.610;2023-02-15T16:22:26;8.40;99.90
49717;DHT22;35609;53.166;7.610;2023-02-15T16:30:29;8.00;99.90
49717;DHT22;35609;53.166;7.610;2023-02-15T16:33:09;7.90;99.90
49717;DHT22;35609;53.166;7.610;2023-02-15T16:35:38;7.70;99.90
49717;DHT22;35609;53.166;7.610;2023-02-15T16:38:04;7.60;99.90
49717;DHT22;35609;53.166;7.610;2023-02-15T16:43:18;7.40;99.90
49717;DHT22;35609;53.166;7.610;2023-02-15T16:45:46;7.40;99.90
49717;DHT22;35609;53.166;7.610;2023-02-15T16:48:17;7.20;99.90
49717;DHT22;35609;53.166;7.610;2023-02-15T16:50:51;7.00;99.90
49717;DHT22;35609;53.166;7.610;2023-02-15T16:53:24;6.90;99.90
49717;DHT22;35609;53.166;7.610;2023-02-15T16:55:56;6.70;99.90
49717;DHT22;35609;53.166;7.610;2023-02-15T16:58:36;6.70;99.90
49717;DHT22;35609;53.166;7.610;2023-02-15T17:01:06;6.70;99.90
49717;DHT22;35609;53.166;7.610;2023-02-15T17:03:32;6.60;99.90
49717;DHT22;35609;53.166;7.610;2023-02-15T17:05:59;6.60;99.90
49717;DHT22;35609;53.166;7.610;2023-02-15T17:08:28;6.60;99.90
49717;DHT22;35609;53.166;7.610;2023-02-15T17:11:14;6.60;99.90
49717;DHT22;35609;53.166;7.610;2023-02-15T17:14:09;6.50;99.90
49717;DHT22;35609;53.166;7.610;2023-02-15T17:16:31;6.50;99.90
49717;DHT22;35609;53.166;7.610;2023-02-15T17:19:00;6.40;99.90
49717;DHT22;35609;53.166;7.610;2023-02-15T17:21:37;6.40;99.90
49717;DHT22;35609;53.166;7.610;2023-02-15T17:24:05;6.30;99.90
49717;DHT22;35609;53.166;7.610;2023-02-15T17:26:34;6.20;99.90
49717;DHT22;35609;53.166;7.610;2023-02-15T17:29:21;6.10;99.90
49717;DHT22;35609;53.166;7.610;2023-02-15T17:31:49;6.20;99.90
49717;DHT22;35609;53.166;7.610;2023-02-15T17:39:56;5.90;99.90
49717;DHT22;35609;53.166;7.610;2023-02-15T17:42:22;5.80;99.90
49717;DHT22;35609;53.166;7.610;2023-02-15T17:44:48;5.80;99.90
49717;DHT22;35609;53.166;7.610;2023-02-15T17:47:19;5.70;99.90
49717;DHT22;35609;53.166;7.610;2023-02-15T17:49:47;5.60;99.90
49717;DHT22;35609;53.166;7.610;2023-02-15T17:52:16;5.60;99.90
49717;DHT22;35609;53.166;7.610;2023-02-15T17:54:43;5.60;99.90
49717;DHT22;35609;53.166;7.610;2023-02-15T17:57:28;5.40;99.90
49717;DHT22;35609;53.166;7.610;2023-02-15T17:59:54;5.40;99.90
49717;DHT22;35609;53.166;7.610;2023-02-15T18:02:38;5.20;99.90
49717;DHT22;35609;53.166;7.610;2023-02-15T18:05:23;5.20;99.90
49717;DHT22;35609;53.166;7.610;2023-02-15T18:08:14;5.10;99.90
49717;DHT22;35609;53.166;7.610;2023-02-15T18:10:59;5.10;99.90
49717;DHT22;35609;53.166;7.610;2023-02-15T18:13:44;5.00;99.90
49717;DHT22;35609;53.166;7.610;2023-02-15T18:16:16;4.80;99.90
49717;DHT22;35609;53.166;7.610;2023-02-15T18:18:43;4.80;99.90
49717;DHT22;35609;53.166;7.610;2023-02-15T18:21:10;4.70;99.90
49717;DHT22;35609;53.166;7.610;2023-02-15T18:23:37;4.80;99.90
49717;DHT22;35609;53.166;7.610;2023-02-15T18:26:03;4.80;99.90
49717;DHT22;35609;53.166;7.610;2023-02-15T18:28:28;4.90;99.90
49717;DHT22;35609;53.166;7.610;2023-02-15T18:30:54;4.80;99.90
49717;DHT22;35609;53.166;7.610;2023-02-15T18:33:41;4.70;99.90
49717;DHT22;35609;53.166;7.610;2023-02-15T18:36:13;4.80;99.90
49717;DHT22;35609;53.166;7.610;2023-02-15T18:38:41;4.40;99.90
49717;DHT22;35609;53.166;7.610;2023-02-15T18:41:15;4.30;99.90
49717;DHT22;35609;53.166;7.610;2023-02-15T18:43:41;4.20;99.90
49717;DHT22;35609;53.166;7.610;2023-02-15T18:46:07;4.30;99.90
49717;DHT22;35609;53.166;7.610;2023-02-15T18:48:33;4.10;99.90
49717;DHT22;35609;53.166;7.610;2023-02-15T18:50:59;4.20;99.90
49717;DHT22;35609;53.166;7.610;2023-02-15T18:53:24;4.20;99.90
49717;DHT22;35609;53.166;7.610;2023-02-15T18:55:50;4.20;99.90
49717;DHT22;35609;53.166;7.610;2023-02-15T18:58:19;4.20;99.90
49717;DHT22;35609;53.166;7.610;2023-02-15T19:00:45;4.10;99.90
49717;DHT22;35609;53.166;7.610;2023-02-15T19:03:15;4.30;99.90
49717;DHT22;35609;53.166;7.610;2023-02-15T19:05:44;4.10;99.90
49717;DHT22;35609;53.166;7.610;2023-02-15T19:08:18;4.10;99.90
49717;DHT22;35609;53.166;7.610;2023-02-15T19:10:46;4.00;99.90